Time,TemperatureF,DewpointF,PressureIn,WindDirection,WindDirectionDegrees,WindSpeedMPH,WindSpeedGustMPH,Humidity,HourlyPrecipIn,Conditions,Clouds,dailyrainin,SoftwareType,DateUTC
2013-05-08 06:15:00,45.2,44.9,30.05,NE,34,0.0,8.0,99,0.00,,,0.01,Wunderground v.1.15,2013-05-08 10:15:00,
2013-05-08 06:18:00,45.1,44.8,30.05,NE,34,0.0,8.0,99,0.00,,,0.01,Wunderground v.1.15,2013-05-08 10:18:00,
2013-05-08 06:23:00,45.1,44.8,30.04,NE,34,0.0,8.0,99,0.00,,,0.01,Wunderground v.1.15,2013-05-08 10:23:00,
2013-05-08 06:28:00,44.8,44.5,30.05,WSW,246,1.0,8.0,99,0.00,,,0.01,Wunderground v.1.15,2013-05-08 10:28:00,
2013-05-08 06:33:00,44.8,44.5,30.05,West,270,3.0,8.0,99,0.00,,,0.01,Wunderground v.1.15,2013-05-08 10:33:00,
2013-05-08 06:39:00,45.0,44.7,30.05,West,268,2.0,8.0,99,0.00,,,0.01,Wunderground v.1.15,2013-05-08 10:39:00,
2013-05-08 06:44:00,45.1,44.8,30.05,West,268,1.0,8.0,99,0.00,,,0.01,Wunderground v.1.15,2013-05-08 10:44:00,
2013-05-08 06:49:00,45.1,44.8,30.06,West,267,1.0,8.0,99,0.00,,,0.01,Wunderground v.1.15,2013-05-08 10:49:00,
2013-05-08 06:54:00,45.3,45.0,30.06,West,266,1.0,8.0,99,0.00,,,0.01,Wunderground v.1.15,2013-05-08 10:54:00,
2013-05-08 06:59:00,45.5,45.2,30.06,West,266,1.0,8.0,99,0.00,,,0.01,Wunderground v.1.15,2013-05-08 10:59:00,
2013-05-08 07:05:00,45.5,45.2,30.06,West,266,0.0,8.0,99,0.00,,,0.01,Wunderground v.1.15,2013-05-08 11:05:00,
2013-05-08 07:10:00,45.5,45.2,30.06,West,266,1.0,8.0,99,0.00,,,0.01,Wunderground v.1.15,2013-05-08 11:10:00,
2013-05-08 07:15:00,45.4,45.1,30.07,West,266,1.0,8.0,99,0.00,,,0.01,Wunderground v.1.15,2013-05-08 11:15:00,
2013-05-08 07:20:00,45.4,45.1,30.07,West,266,0.0,8.0,99,0.00,,,0.01,Wunderground v.1.15,2013-05-08 11:20:00,
2013-05-08 07:25:00,45.7,45.4,30.07,West,266,1.0,8.0,99,0.00,,,0.01,Wunderground v.1.15,2013-05-08 11:25:00,
2013-05-08 07:30:00,46.0,45.7,30.08,West,266,1.0,1.0,99,0.00,,,0.01,Wunderground v.1.15,2013-05-08 11:30:00,
2013-05-08 07:35:00,46.2,45.9,30.07,West,266,0.0,8.0,99,0.00,,,0.01,Wunderground v.1.15,2013-05-08 11:35:00,
2013-05-08 07:40:00,46.4,46.4,30.08,SW,236,0.0,8.0,100,0.00,,,0.01,Wunderground v.1.15,2013-05-08 11:40:00,
2013-05-08 07:46:00,46.8,46.5,30.08,SW,236,0.0,8.0,99,0.00,,,0.01,Wunderground v.1.15,2013-05-08 11:46:00,
2013-05-08 07:51:00,47.3,47.3,30.08,SW,236,0.0,8.0,100,0.00,,,0.01,Wunderground v.1.15,2013-05-08 11:51:00,
2013-05-08 07:56:00,47.5,47.5,30.08,ENE,70,0.0,8.0,100,0.00,,,0.01,Wunderground v.1.15,2013-05-08 11:56:00,
2013-05-08 08:01:00,47.8,47.8,30.08,NE,51,0.0,8.0,100,0.00,,,0.01,Wunderground v.1.15,2013-05-08 12:01:00,
2013-05-08 08:06:00,48.0,48.0,30.08,NE,51,0.0,8.0,100,0.00,,,0.01,Wunderground v.1.15,2013-05-08 12:06:00,
2013-05-08 08:12:00,48.5,48.5,30.08,NE,51,0.0,8.0,100,0.00,,,0.01,Wunderground v.1.15,2013-05-08 12:12:00,
2013-05-08 08:17:00,49.0,49.0,30.08,ENE,71,1.0,8.0,100,0.00,,,0.01,Wunderground v.1.15,2013-05-08 12:17:00,
2013-05-08 08:22:00,49.6,49.6,30.08,ENE,75,2.0,8.0,100,0.00,,,0.01,Wunderground v.1.15,2013-05-08 12:22:00,
2013-05-08 08:27:00,50.3,50.3,30.08,ENE,75,1.0,8.0,100,0.00,,,0.01,Wunderground v.1.15,2013-05-08 12:27:00,
2013-05-08 08:32:00,50.6,50.6,30.08,NNW,340,1.0,8.0,100,0.00,,,0.01,Wunderground v.1.15,2013-05-08 12:32:00,
2013-05-08 08:38:00,51.2,51.2,30.09,NNW,340,1.0,8.0,100,0.00,,,0.01,Wunderground v.1.15,2013-05-08 12:38:00,
2013-05-08 08:43:00,51.6,51.6,30.09,NNW,340,0.0,1.0,100,0.00,,,0.01,Wunderground v.1.15,2013-05-08 12:43:00,
2013-05-08 08:48:00,51.7,51.7,30.09,NNW,340,0.0,1.0,100,0.00,,,0.01,Wunderground v.1.15,2013-05-08 12:48:00,
2013-05-08 08:53:00,51.9,51.9,30.09,NNW,340,0.0,0.0,100,0.00,,,0.01,Wunderground v.1.15,2013-05-08 12:53:00,
2013-05-08 08:58:00,51.8,51.8,30.09,NNW,341,1.0,1.0,100,0.00,,,0.01,Wunderground v.1.15,2013-05-08 12:58:00,
2013-05-08 09:03:00,51.9,51.9,30.09,NNW,341,1.0,2.0,100,0.00,,,0.01,Wunderground v.1.15,2013-05-08 13:03:00,
2013-05-08 12:00:00,60.4,53.2,30.10,SSW,206,3.0,3.0,77,0.00,,,0.02,Wunderground v.1.15,2013-05-08 16:00:00,
2013-05-08 12:06:00,60.4,53.2,30.10,SSW,205,2.0,4.0,77,0.00,,,0.02,Wunderground v.1.15,2013-05-08 16:06:00,
2013-05-08 12:11:00,60.6,54.0,30.10,WSW,240,2.0,3.0,79,0.00,,,0.02,Wunderground v.1.15,2013-05-08 16:11:00,
2013-05-08 12:16:00,60.5,52.2,30.10,SW,235,3.0,5.0,74,0.00,,,0.02,Wunderground v.1.15,2013-05-08 16:16:00,
2013-05-08 12:21:00,60.7,52.4,30.10,SW,235,3.0,3.0,74,0.00,,,0.02,Wunderground v.1.15,2013-05-08 16:21:00,
2013-05-08 12:26:00,61.1,53.8,30.10,SSW,194,2.0,5.0,77,0.00,,,0.02,Wunderground v.1.15,2013-05-08 16:26:00,
2013-05-08 12:31:00,61.4,53.4,30.09,SSW,205,2.0,4.0,75,0.00,,,0.02,Wunderground v.1.15,2013-05-08 16:31:00,
2013-05-08 12:36:00,61.9,54.6,30.09,NNW,335,2.0,5.0,77,0.00,,,0.02,Wunderground v.1.15,2013-05-08 16:36:00,
2013-05-08 12:41:00,62.0,53.6,30.09,North,360,2.0,4.0,74,0.00,,,0.02,Wunderground v.1.15,2013-05-08 16:41:00,
2013-05-08 12:47:00,62.1,54.1,30.09,NW,313,2.0,4.0,75,0.00,,,0.02,Wunderground v.1.15,2013-05-08 16:47:00,
2013-05-08 12:52:00,61.8,53.4,30.09,WNW,292,2.0,2.0,74,0.00,,,0.02,Wunderground v.1.15,2013-05-08 16:52:00,
2013-05-08 12:57:00,61.4,53.0,30.09,West,275,3.0,6.0,74,0.00,,,0.02,Wunderground v.1.15,2013-05-08 16:57:00,
2013-05-08 13:02:00,61.3,53.3,30.09,WNW,298,4.0,6.0,75,0.00,,,0.02,Wunderground v.1.15,2013-05-08 17:02:00,
2013-05-08 13:07:00,61.5,53.5,30.09,SW,235,4.0,6.0,75,0.00,,,0.02,Wunderground v.1.15,2013-05-08 17:07:00,
2013-05-08 13:13:00,61.4,53.0,30.09,SW,229,4.0,7.0,74,0.00,,,0.02,Wunderground v.1.15,2013-05-08 17:13:00,
2013-05-08 13:18:00,61.3,53.7,30.09,WSW,252,4.0,7.0,76,0.00,,,0.02,Wunderground v.1.15,2013-05-08 17:18:00,
2013-05-08 13:23:00,61.5,53.9,30.09,WNW,294,3.0,4.0,76,0.00,,,0.02,Wunderground v.1.15,2013-05-08 17:23:00,
2013-05-08 13:28:00,61.8,53.8,30.09,West,273,3.0,5.0,75,0.00,,,0.02,Wunderground v.1.15,2013-05-08 17:28:00,
2013-05-08 13:33:00,62.4,53.3,30.09,West,264,3.0,5.0,72,0.00,,,0.02,Wunderground v.1.15,2013-05-08 17:33:00,
2013-05-08 13:39:00,62.5,53.0,30.09,NW,320,3.0,5.0,71,0.00,,,0.02,Wunderground v.1.15,2013-05-08 17:39:00,
2013-05-08 13:44:00,62.3,53.5,30.09,NW,313,4.0,4.0,73,0.00,,,0.02,Wunderground v.1.15,2013-05-08 17:44:00,
2013-05-08 13:49:00,62.4,53.6,30.09,NW,314,3.0,5.0,73,0.00,,,0.02,Wunderground v.1.15,2013-05-08 17:49:00,
2013-05-08 13:54:00,63.1,53.5,30.09,West,276,2.0,5.0,71,0.00,,,0.02,Wunderground v.1.15,2013-05-08 17:54:00,
2013-05-08 13:59:00,63.6,53.2,30.08,NW,312,4.0,6.0,69,0.00,,,0.02,Wunderground v.1.15,2013-05-08 17:59:00,
2013-05-08 14:04:00,63.6,53.6,30.08,NNW,333,4.0,6.0,70,0.00,,,0.02,Wunderground v.1.15,2013-05-08 18:04:00,
2013-05-08 14:09:00,63.5,53.9,30.08,NNW,331,4.0,6.0,71,0.00,,,0.02,Wunderground v.1.15,2013-05-08 18:09:00,
2013-05-08 14:15:00,63.4,54.2,30.08,NW,312,4.0,5.0,72,0.00,,,0.02,Wunderground v.1.15,2013-05-08 18:15:00,
2013-05-08 14:20:00,63.3,53.7,30.08,NW,315,3.0,3.0,71,0.00,,,0.02,Wunderground v.1.15,2013-05-08 18:20:00,
2013-05-08 14:26:00,63.8,54.2,30.08,WNW,294,3.0,5.0,71,0.00,,,0.02,Wunderground v.1.15,2013-05-08 18:26:00,
2013-05-08 14:31:00,64.1,55.3,30.08,NW,315,3.0,3.0,73,0.00,,,0.02,Wunderground v.1.15,2013-05-08 18:31:00,
2013-05-08 14:36:00,64.5,54.1,30.08,WNW,303,4.0,5.0,69,0.00,,,0.02,Wunderground v.1.15,2013-05-08 18:36:00,
2013-05-08 14:41:00,64.5,54.9,30.08,WSW,257,4.0,6.0,71,0.00,,,0.02,Wunderground v.1.15,2013-05-08 18:41:00,
2013-05-08 14:46:00,64.4,54.0,30.08,WSW,240,6.0,9.0,69,0.00,,,0.02,Wunderground v.1.15,2013-05-08 18:46:00,
2013-05-08 14:51:00,64.4,54.0,30.08,WNW,284,6.0,8.0,69,0.00,,,0.02,Wunderground v.1.15,2013-05-08 18:51:00,
2013-05-08 14:56:00,64.4,54.4,30.08,WSW,252,6.0,8.0,70,0.00,,,0.02,Wunderground v.1.15,2013-05-08 18:56:00,
2013-05-08 15:01:00,64.2,53.4,30.08,WSW,240,6.0,10.0,68,0.00,,,0.02,Wunderground v.1.15,2013-05-08 19:01:00,
2013-05-08 15:06:00,64.2,54.2,30.08,West,281,6.0,10.0,70,0.00,,,0.02,Wunderground v.1.15,2013-05-08 19:06:00,
2013-05-08 15:11:00,64.3,54.7,30.08,WNW,290,5.0,6.0,71,0.00,,,0.03,Wunderground v.1.15,2013-05-08 19:11:00,
2013-05-08 15:16:00,64.4,54.8,30.08,WNW,286,5.0,7.0,71,0.00,,,0.03,Wunderground v.1.15,2013-05-08 19:16:00,
2013-05-08 15:21:00,64.9,54.5,30.08,NW,326,5.0,9.0,69,0.00,,,0.03,Wunderground v.1.15,2013-05-08 19:21:00,
2013-05-08 15:27:00,65.2,54.4,30.08,West,267,4.0,9.0,68,0.00,,,0.03,Wunderground v.1.15,2013-05-08 19:27:00,
2013-05-08 15:32:00,64.9,54.1,30.08,NW,319,5.0,6.0,68,0.00,,,0.03,Wunderground v.1.15,2013-05-08 19:32:00,
2013-05-08 15:37:00,65.0,54.2,30.08,West,261,5.0,6.0,68,0.00,,,0.03,Wunderground v.1.15,2013-05-08 19:37:00,
2013-05-08 15:42:00,65.0,55.0,30.08,West,275,4.0,4.0,70,0.00,,,0.03,Wunderground v.1.15,2013-05-08 19:42:00,
2013-05-08 15:47:00,65.0,54.6,30.08,West,275,3.0,6.0,69,0.00,,,0.03,Wunderground v.1.15,2013-05-08 19:47:00,
2013-05-08 15:53:00,64.8,54.0,30.08,WNW,284,4.0,7.0,68,0.00,,,0.03,Wunderground v.1.15,2013-05-08 19:53:00,
2013-05-08 15:58:00,64.6,54.6,30.08,West,267,5.0,7.0,70,0.00,,,0.03,Wunderground v.1.15,2013-05-08 19:58:00,
2013-05-08 16:03:00,64.8,55.2,30.08,WNW,288,4.0,5.0,71,0.00,,,0.03,Wunderground v.1.15,2013-05-08 20:03:00,
2013-05-08 16:09:00,65.0,54.6,30.08,WNW,302,4.0,9.0,69,0.00,,,0.03,Wunderground v.1.15,2013-05-08 20:09:00,
2013-05-08 16:14:00,64.8,54.0,30.07,North,355,5.0,6.0,68,0.00,,,0.03,Wunderground v.1.15,2013-05-08 20:14:00,
2013-05-08 16:19:00,64.6,53.8,30.07,WNW,299,5.0,6.0,68,0.00,,,0.03,Wunderground v.1.15,2013-05-08 20:19:00,
2013-05-08 16:24:00,64.6,54.2,30.07,NW,323,5.0,5.0,69,0.00,,,0.03,Wunderground v.1.15,2013-05-08 20:24:00,
2013-05-08 16:30:00,64.8,54.4,30.07,WNW,297,4.0,4.0,69,0.00,,,0.03,Wunderground v.1.15,2013-05-08 20:30:00,
2013-05-08 16:35:00,65.0,54.2,30.07,North,355,4.0,8.0,68,0.00,,,0.03,Wunderground v.1.15,2013-05-08 20:35:00,
2013-05-08 16:40:00,65.5,54.2,30.07,NNW,336,3.0,3.0,67,0.00,,,0.03,Wunderground v.1.15,2013-05-08 20:40:00,
2013-05-08 16:45:00,66.1,54.8,30.07,WNW,290,4.0,7.0,67,0.00,,,0.03,Wunderground v.1.15,2013-05-08 20:45:00,
2013-05-08 16:50:00,66.6,54.5,30.06,WNW,295,4.0,4.0,65,0.00,,,0.03,Wunderground v.1.15,2013-05-08 20:50:00,
2013-05-08 16:55:00,66.9,53.9,30.06,West,267,5.0,8.0,63,0.00,,,0.03,Wunderground v.1.15,2013-05-08 20:55:00,
2013-05-08 17:00:00,66.8,53.8,30.07,NW,306,7.0,7.0,63,0.00,,,0.03,Wunderground v.1.15,2013-05-08 21:00:00,
2013-05-08 17:05:00,67.0,53.5,30.06,WSW,246,7.0,10.0,62,0.00,,,0.03,Wunderground v.1.15,2013-05-08 21:05:00,
2013-05-08 17:11:00,66.7,54.6,30.06,WNW,301,5.0,6.0,65,0.00,,,0.03,Wunderground v.1.15,2013-05-08 21:11:00,
2013-05-08 17:16:00,66.7,54.6,30.06,NW,311,5.0,7.0,65,0.00,,,0.03,Wunderground v.1.15,2013-05-08 21:16:00,
2013-05-08 17:21:00,66.4,53.8,30.06,NW,313,5.0,6.0,64,0.00,,,0.03,Wunderground v.1.15,2013-05-08 21:21:00,
2013-05-08 17:26:00,66.0,53.0,30.06,West,270,6.0,10.0,63,0.00,,,0.03,Wunderground v.1.15,2013-05-08 21:26:00,
2013-05-08 17:31:00,66.3,53.8,30.06,NW,308,7.0,8.0,64,0.00,,,0.03,Wunderground v.1.15,2013-05-08 21:31:00,
2013-05-08 17:37:00,67.3,54.3,30.06,NW,304,6.0,8.0,63,0.00,,,0.03,Wunderground v.1.15,2013-05-08 21:37:00,
2013-05-08 17:42:00,67.1,53.6,30.06,North,5,5.0,9.0,62,0.00,,,0.03,Wunderground v.1.15,2013-05-08 21:42:00,
2013-05-08 17:47:00,66.8,54.2,30.06,WNW,299,4.0,9.0,64,0.00,,,0.03,Wunderground v.1.15,2013-05-08 21:47:00,
2013-05-08 17:52:00,66.4,53.4,30.06,NNW,342,4.0,6.0,63,0.00,,,0.03,Wunderground v.1.15,2013-05-08 21:52:00,
2013-05-08 17:57:00,66.0,53.5,30.07,WNW,302,5.0,7.0,64,0.00,,,0.03,Wunderground v.1.15,2013-05-08 21:57:00,
2013-05-08 18:02:00,65.6,53.1,30.07,NNW,332,5.0,5.0,64,0.00,,,0.03,Wunderground v.1.15,2013-05-08 22:02:00,
2013-05-08 18:07:00,65.3,52.8,30.07,NNW,333,4.0,7.0,64,0.00,,,0.03,Wunderground v.1.15,2013-05-08 22:07:00,
2013-05-08 18:12:00,65.0,52.5,30.07,NW,304,5.0,6.0,64,0.00,,,0.03,Wunderground v.1.15,2013-05-08 22:12:00,
2013-05-08 18:18:00,64.2,53.4,30.08,WNW,301,6.0,13.0,68,0.00,,,0.03,Wunderground v.1.15,2013-05-08 22:18:00,
2013-05-08 18:23:00,62.7,54.7,30.08,NW,306,9.0,10.0,75,0.00,,,0.03,Wunderground v.1.15,2013-05-08 22:23:00,
2013-05-08 18:28:00,61.4,54.5,30.08,West,279,9.0,10.0,78,0.00,,,0.03,Wunderground v.1.15,2013-05-08 22:28:00,
2013-05-08 18:33:00,60.7,54.8,30.08,NW,317,6.0,8.0,81,0.00,,,0.03,Wunderground v.1.15,2013-05-08 22:33:00,
2013-05-08 18:38:00,60.3,55.1,30.08,WNW,302,4.0,8.0,83,0.00,,,0.03,Wunderground v.1.15,2013-05-08 22:38:00,
2013-05-08 18:44:00,60.0,55.5,30.08,West,275,4.0,5.0,85,0.00,,,0.03,Wunderground v.1.15,2013-05-08 22:44:00,
2013-05-08 18:49:00,60.0,55.5,30.08,West,279,3.0,5.0,85,0.00,,,0.03,Wunderground v.1.15,2013-05-08 22:49:00,
2013-05-08 18:54:00,60.1,55.6,30.08,West,279,1.0,2.0,85,0.00,,,0.03,Wunderground v.1.15,2013-05-08 22:54:00,
2013-05-08 19:00:00,60.3,55.8,30.08,NW,323,1.0,2.0,85,0.00,,,0.03,Wunderground v.1.15,2013-05-08 23:00:00,
2013-05-08 19:05:00,60.6,55.4,30.07,NNW,329,2.0,5.0,83,0.00,,,0.03,Wunderground v.1.15,2013-05-08 23:05:00,
2013-05-08 19:10:00,60.8,55.6,30.08,NW,314,2.0,2.0,83,0.00,,,0.03,Wunderground v.1.15,2013-05-08 23:10:00,
2013-05-08 19:15:00,61.2,56.3,30.08,WNW,296,2.0,2.0,84,0.00,,,0.03,Wunderground v.1.15,2013-05-08 23:15:00,
2013-05-08 19:20:00,61.6,56.0,30.08,West,278,2.0,4.0,82,0.00,,,0.03,Wunderground v.1.15,2013-05-08 23:20:00,
2013-05-08 19:26:00,61.2,55.7,30.08,NW,318,3.0,6.0,82,0.00,,,0.03,Wunderground v.1.15,2013-05-08 23:26:00,
2013-05-08 19:31:00,61.0,55.8,30.08,NW,309,2.0,3.0,83,0.00,,,0.03,Wunderground v.1.15,2013-05-08 23:31:00,
2013-05-08 19:36:00,61.1,55.9,30.08,NW,309,1.0,3.0,83,0.00,,,0.03,Wunderground v.1.15,2013-05-08 23:36:00,
2013-05-08 19:41:00,61.2,56.0,30.08,WNW,303,0.0,2.0,83,0.00,,,0.03,Wunderground v.1.15,2013-05-08 23:41:00,
2013-05-08 19:46:00,61.3,55.8,30.08,West,279,1.0,4.0,82,0.00,,,0.03,Wunderground v.1.15,2013-05-08 23:46:00,
2013-05-08 19:52:00,61.4,55.9,30.09,NW,317,1.0,2.0,82,0.00,,,0.03,Wunderground v.1.15,2013-05-08 23:52:00,
2013-05-08 19:57:00,61.5,56.0,30.08,WSW,257,1.0,5.0,82,0.00,,,0.03,Wunderground v.1.15,2013-05-08 23:57:00,
2013-05-08 20:02:00,61.4,55.5,30.09,WSW,257,1.0,2.0,81,0.00,,,0.03,Wunderground v.1.15,2013-05-09 00:02:00,
2013-05-08 20:07:00,61.1,55.2,30.09,NNW,342,0.0,4.0,81,0.00,,,0.03,Wunderground v.1.15,2013-05-09 00:07:00,
2013-05-08 20:12:00,60.7,55.2,30.09,NW,322,1.0,2.0,82,0.00,,,0.03,Wunderground v.1.15,2013-05-09 00:12:00,
2013-05-08 20:17:00,60.3,55.1,30.10,NW,322,2.0,2.0,83,0.00,,,0.03,Wunderground v.1.15,2013-05-09 00:17:00,
2013-05-08 20:22:00,60.0,54.8,30.10,NW,323,1.0,2.0,83,0.00,,,0.03,Wunderground v.1.15,2013-05-09 00:22:00,
2013-05-08 20:27:00,59.7,54.2,30.10,NW,323,1.0,2.0,82,0.00,,,0.03,Wunderground v.1.15,2013-05-09 00:27:00,
2013-05-08 20:32:00,59.7,54.5,30.10,NW,323,1.0,2.0,83,0.00,,,0.04,Wunderground v.1.15,2013-05-09 00:32:00,
2013-05-08 20:37:00,59.4,54.9,30.10,South,186,1.0,2.0,85,0.00,,,0.04,Wunderground v.1.15,2013-05-09 00:37:00,
2013-05-08 20:42:00,59.0,54.5,30.10,SSW,192,1.0,2.0,85,0.00,,,0.04,Wunderground v.1.15,2013-05-09 00:42:00,
2013-05-08 20:48:00,58.4,53.9,30.10,ENE,61,2.0,3.0,85,0.00,,,0.04,Wunderground v.1.15,2013-05-09 00:48:00,
2013-05-08 20:53:00,58.3,53.8,30.10,ENE,61,1.0,2.0,85,0.00,,,0.04,Wunderground v.1.15,2013-05-09 00:53:00,
2013-05-08 20:58:00,58.0,53.8,30.11,NE,51,1.0,2.0,86,0.00,,,0.04,Wunderground v.1.15,2013-05-09 00:58:00,
2013-05-08 21:03:00,57.8,53.3,30.11,North,11,1.0,2.0,85,0.00,,,0.04,Wunderground v.1.15,2013-05-09 01:03:00,
2013-05-08 21:08:00,57.8,53.6,30.11,North,11,1.0,2.0,86,0.00,,,0.04,Wunderground v.1.15,2013-05-09 01:08:00,
2013-05-08 21:14:00,57.8,53.3,30.11,NNE,30,1.0,2.0,85,0.00,,,0.04,Wunderground v.1.15,2013-05-09 01:14:00,
2013-05-08 21:19:00,58.1,53.3,30.11,NE,43,2.0,4.0,84,0.00,,,0.04,Wunderground v.1.15,2013-05-09 01:19:00,
2013-05-08 21:24:00,58.3,53.2,30.11,NNE,20,2.0,5.0,83,0.00,,,0.04,Wunderground v.1.15,2013-05-09 01:24:00,
2013-05-08 21:29:00,58.2,53.4,30.11,NNE,32,2.0,5.0,84,0.00,,,0.04,Wunderground v.1.15,2013-05-09 01:29:00,
2013-05-08 21:34:00,58.1,53.0,30.11,NNE,25,2.0,2.0,83,0.00,,,0.04,Wunderground v.1.15,2013-05-09 01:34:00,
2013-05-08 21:40:00,58.0,53.2,30.12,North,5,1.0,2.0,84,0.00,,,0.04,Wunderground v.1.15,2013-05-09 01:40:00,
2013-05-08 21:45:00,57.8,53.0,30.12,North,5,1.0,2.0,84,0.00,,,0.04,Wunderground v.1.15,2013-05-09 01:45:00,
2013-05-08 21:50:00,57.7,52.9,30.12,NE,41,0.0,2.0,84,0.00,,,0.04,Wunderground v.1.15,2013-05-09 01:50:00,
2013-05-08 21:56:00,57.3,52.8,30.12,NE,41,0.0,2.0,85,0.00,,,0.04,Wunderground v.1.15,2013-05-09 01:56:00,
2013-05-08 22:01:00,56.9,52.8,30.12,NE,41,1.0,2.0,86,0.00,,,0.04,Wunderground v.1.15,2013-05-09 02:01:00,
2013-05-08 22:06:00,56.4,52.6,30.13,ESE,116,1.0,2.0,87,0.00,,,0.04,Wunderground v.1.15,2013-05-09 02:06:00,
2013-05-08 22:12:00,55.9,52.4,30.12,ESE,116,1.0,2.0,88,0.00,,,0.04,Wunderground v.1.15,2013-05-09 02:12:00,
2013-05-08 22:17:00,55.5,52.3,30.12,ESE,116,0.0,2.0,89,0.00,,,0.04,Wunderground v.1.15,2013-05-09 02:17:00,
2013-05-08 22:22:00,55.2,52.3,30.13,ESE,116,0.0,2.0,90,0.00,,,0.04,Wunderground v.1.15,2013-05-09 02:22:00,
2013-05-08 22:28:00,55.0,52.1,30.13,ESE,116,0.0,2.0,90,0.00,,,0.04,Wunderground v.1.15,2013-05-09 02:28:00,
2013-05-08 22:33:00,54.8,52.2,30.13,ESE,116,0.0,2.0,91,0.00,,,0.04,Wunderground v.1.15,2013-05-09 02:33:00,
2013-05-08 22:38:00,55.0,52.4,30.13,ESE,117,0.0,2.0,91,0.00,,,0.04,Wunderground v.1.15,2013-05-09 02:38:00,
2013-05-08 22:43:00,55.2,52.6,30.13,WNW,303,0.0,2.0,91,0.00,,,0.04,Wunderground v.1.15,2013-05-09 02:43:00,
2013-05-08 22:48:00,55.9,52.7,30.13,NW,306,2.0,4.0,89,0.00,,,0.04,Wunderground v.1.15,2013-05-09 02:48:00,
2013-05-08 22:54:00,56.6,53.1,30.14,WNW,300,3.0,4.0,88,0.00,,,0.04,Wunderground v.1.15,2013-05-09 02:54:00,
2013-05-08 22:59:00,56.8,53.0,30.14,WSW,255,3.0,5.0,87,0.00,,,0.04,Wunderground v.1.15,2013-05-09 02:59:00,
2013-05-08 23:04:00,55.9,52.7,30.14,WSW,249,2.0,3.0,89,0.00,,,0.04,Wunderground v.1.15,2013-05-09 03:04:00,
2013-05-08 23:09:00,55.5,52.6,30.14,West,273,2.0,3.0,90,0.00,,,0.04,Wunderground v.1.15,2013-05-09 03:09:00,
2013-05-08 23:14:00,55.4,52.8,30.14,West,273,1.0,1.0,91,0.00,,,0.04,Wunderground v.1.15,2013-05-09 03:14:00,
2013-05-08 23:20:00,55.3,52.7,30.13,West,273,0.0,1.0,91,0.00,,,0.04,Wunderground v.1.15,2013-05-09 03:20:00,
2013-05-08 23:25:00,55.0,52.4,30.13,West,273,1.0,2.0,91,0.00,,,0.04,Wunderground v.1.15,2013-05-09 03:25:00,
2013-05-08 23:30:00,54.7,52.4,30.13,West,273,1.0,1.0,92,0.00,,,0.04,Wunderground v.1.15,2013-05-09 03:30:00,
2013-05-08 23:35:00,54.3,52.0,30.13,West,273,0.0,3.0,92,0.00,,,0.04,Wunderground v.1.15,2013-05-09 03:35:00,
2013-05-08 23:41:00,53.8,51.8,30.13,West,264,1.0,3.0,93,0.00,,,0.04,Wunderground v.1.15,2013-05-09 03:41:00,
2013-05-08 23:46:00,53.5,51.8,30.13,West,264,1.0,3.0,94,0.00,,,0.04,Wunderground v.1.15,2013-05-09 03:46:00,
2013-05-08 23:52:00,53.4,51.7,30.13,West,264,0.0,3.0,94,0.00,,,0.04,Wunderground v.1.15,2013-05-09 03:52:00,
2013-05-08 23:57:00,53.2,51.5,30.13,West,264,0.0,3.0,94,0.00,,,0.04,Wunderground v.1.15,2013-05-09 03:57:00,